Track маеров Арсений

Time Latitude Longitude Accuracy (66% radius in meters) Altitude (meters) Speed (km/hour) Bearing (degrees) Battery (%) GPS flag
09:15:43 59.743207 30.398283 7.585000038147 51 1.289999961853 22.39999961853 15 1 delete
09:15:35 59.743152 30.398243 6.0679998397827 50 1.3500000238419 164.80000305176 15 1 delete
09:15:33 59.743174 30.398283 6.0679998397827 51 1.3700000047684 229.89999389648 15 1 delete
09:15:23 59.743245 30.398174 6.0679998397827 49 1.4700000286102 258 15 1 delete
09:15:21 59.743238 30.398185 7.585000038147 50 1.5099999904633 334.39999389648 15 1 delete
09:15:13 59.743164 30.398110 10.618999481201 49 1.5199999809265 31.60000038147 15 1 delete
09:15:12 59.743159 30.398087 12.135999679565 48 1.5099999904633 34.599998474121 15 1 delete
09:15:03 59.743044 30.397954 9.1019992828369 49 1.460000038147 25.10000038147 15 1 delete
09:14:51 59.743035 30.397931 12.135999679565 52 0.58999997377396 220.89999389648 15 1 delete
09:14:45 59.743074 30.397992 25.788999557495 73 0.30000001192093 349.10000610352 15 1 delete
09:14:44 59.742968 30.398053 6.0679998397827 58 0.36000001430511 146 15 1 delete
09:14:40 59.743075 30.397934 22.754999160767 58 3.25 8.3000001907349 15 1 delete
09:11:36 59.740681 30.392282 4.5509996414185 64 3.2599999904633 74 15 1 delete
09:11:34 59.740681 30.392156 4.5509996414185 63 3.3299999237061 85 15 1 delete
09:11:31 59.740681 30.391964 6.0679998397827 64 3.9700000286102 86.400001525879 15 1 delete
09:11:28 59.740660 30.391700 7.585000038147 67 3.5699999332428 103.09999847412 15 1 delete
09:11:27 59.740669 30.391643 7.585000038147 66 3.789999961853 90.599998474121 15 1 delete
09:11:25 59.740679 30.391501 9.1019992828369 64 3.9400000572205 78.300003051758 15 1 delete
09:11:24 59.740645 30.391206 9.1019992828369 64 2.7599999904633 93.900001525879 15 1 delete
09:11:21 59.740618 30.390951 9.1019992828369 63 2.5199999809265 97.400001525879 15 1 delete
09:11:17 59.740637 30.390712 6.0679998397827 65 0 0 15 1 delete
09:11:12 59.740625 30.390517 6.0679998397827 62 2.5599999427795 130.60000610352 15 1 delete
09:11:06 59.740729 30.390425 6.0679998397827 63 0 0 15 1 delete
09:10:56 59.740736 30.390411 4.5509996414185 62 0 0 15 1 delete
09:10:46 59.740742 30.390378 6.0679998397827 57 0 0 15 1 delete
09:10:35 59.740719 30.390414 24.271999359131 85 0 0 15 1 delete
09:10:34 59.740708 30.390415 31.856998443604 80 0 0 15 1 delete
09:09:45 59.740694 30.389820 7.585000038147 58 1.5199999809265 49.799999237061 15 1 delete
09:09:43 59.740677 30.389828 7.585000038147 54 1.5099999904633 3.2000000476837 15 1 delete
09:09:37 59.740618 30.389705 9.1019992828369 53 1.5299999713898 58.900001525879 15 1 delete
09:09:33 59.740604 30.389566 10.618999481201 55 1.5099999904633 80.099998474121 15 1 delete
09:09:31 59.740613 30.389486 7.585000038147 56 1.5199999809265 87.099998474121 15 1 delete
09:09:23 59.740614 30.389305 9.1019992828369 57 1.5800000429153 81.699996948242 15 1 delete
09:09:17 59.740593 30.389124 7.585000038147 56 1.6299999952316 94.400001525879 15 1 delete
09:09:13 59.740621 30.389006 7.585000038147 55 1.6399999856949 62.400001525879 15 1 delete
09:09:10 59.740602 30.388943 6.0679998397827 57 1.6900000572205 67.400001525879 15 1 delete
09:09:05 59.740567 30.388772 4.5509996414185 57 1.6399999856949 86.699996948242 15 1 delete
09:09:02 59.740555 30.388681 4.5509996414185 56 0.69999998807907 99.400001525879 15 1 delete
09:08:58 59.740575 30.388590 6.0679998397827 60 0.62999999523163 85.400001525879 15 1 delete
09:08:52 59.740572 30.388493 10.618999481201 72 0 0 15 1 delete
09:08:49 59.740601 30.388412 19.720998764038 58 0.95999997854233 51.200000762939 15 1 delete
09:07:27 59.739796 30.388026 89.502998352051 65 0 0 15 1 delete
09:06:57 59.739775 30.388030 66.748001098633 66 0 0 15 1 delete
09:06:46 59.739763 30.388049 56.128997802734 66 0 0 15 1 delete
09:06:38 59.739697 30.387677 74.333000183105 75 1.2400000095367 64.5 15 1 delete
09:06:35 59.739583 30.387503 78.883995056152 62 1.460000038147 140.60000610352 15 1 delete
08:53:45 59.739781 30.387502 9.1019992828369 60 0 0 15 1 delete
08:53:40 59.739781 30.387502 6.0679998397827 60 0 0 15 1 delete
08:53:30 59.739780 30.387502 6.0679998397827 60 0 0 15 1 delete
08:53:19 59.739778 30.387503 6.0679998397827 59 0 0 15 1 delete